Terminal Aerodrome Forecast
Issued by NWS

Home | Current Version | Previous Version | Graphics & Text | Print | Product List | Glossary Off
Versions: 1 2 3 4 5 6 7 8 9 10 11 12 13 14 15 16 17 18 19 20

787
FTUS43 KGRB 162321
TAFMTW
TAF
KMTW 162321Z 1700/1724 10008KT P6SM BKN120
     FM170300 10008KT P6SM -SHRA SCT025 OVC050
      TEMPO 1704/1707 2SM -TSRA BR BKN015CB
     FM170800 13007KT 4SM BR VCSH BKN008 OVC015
     FM171500 22014G20KT P6SM -SHRA OVC020 PROB30 1715/1717 4SM
      -TSRA BKN015CB=

USA.gov is the U.S. government's official web portal to all federal, state and local government web resources and services.